Камери на живо
METAR for:LBBG (Burgas Arpt, BU, BG)
Text:LBBG 201030Z 25019KT CAVOK 07/M01 Q1020 NOSIG
Temperature: 7.0°C ( 45°F)
Dewpoint: -1.0°C ( 30°F) [RH = 57%]
Pressure (altimeter):30.12 inches Hg (1020.0 mb)
Winds:from the WSW (250 degrees) at 22 MPH (19 knots; 9.8 m/s)
Visibility:6 or more sm (10+ km)
Ceiling:ceiling and visibility are OK
Clouds:unknown

TAF for:LBBG (Burgas Arpt, BU, BG) issued at 0500 UTC 20 Jan 2022
Text:TAF LBBG 200500Z 2006/2106 25012KT CAVOK
Forecast period:0600 UTC 20 January 2022 to 0200 UTC 21 January 2022
Forecast type:FROM: standard forecast or significant change
Winds:from the WSW (250 degrees) at 14 MPH (12 knots; 6.2 m/s)
Visibility:6 or more sm (10+ km)
Clouds:missing
Weather:NSW (no significant weather)
Text:BECMG 2102/2104 BKN040
Forecast period:0200 to 0600 UTC 21 January 2022
Forecast type:BECOMING: Conditions expected to become as follows by 0400 UTC 21 January 2022
Winds:from the WSW (250 degrees) at 14 MPH (12 knots; 6.2 m/s)
Visibility:6 or more sm (10+ km)
Ceiling:4000 feet AGL
Clouds: broken clouds at 4000 feet AGL
Weather:NSW (no significant weather)